Time;durP1;ratioP1;P1;durP2;ratioP2;P2;SDS_P1;SDS_P2;PMS_P1;PMS_P2;Temp;Humidity;BMP_temperature;BMP_pressure;BME280_temperature;BME280_humidity;BME280_pressure;Samples;Min_cycle;Max_cycle;Signal;HPM_P1;HPM_P2
2022/12/27 00:00:30;;;;;;;10.32;2.50;;;5.20;99.90;;;;;;4142711;28;20033;-75
2022/12/27 00:02:31;;;;;;;9.75;2.67;;;5.30;99.90;;;;;;4143442;28;20092;-76
2022/12/27 00:04:31;;;;;;;7.90;2.63;;;5.20;99.90;;;;;;4143251;28;20034;-75
2022/12/27 00:06:32;;;;;;;10.38;2.85;;;5.20;99.90;;;;;;4141615;28;20053;-75
2022/12/27 00:08:33;;;;;;;14.40;2.65;;;5.20;99.90;;;;;;4143458;28;20045;-76
2022/12/27 00:10:33;;;;;;;9.98;2.60;;;5.20;99.90;;;;;;4141787;28;20038;-76
2022/12/27 00:12:34;;;;;;;11.52;2.83;;;5.30;99.90;;;;;;4143179;28;20065;-75
2022/12/27 00:14:35;;;;;;;11.30;2.60;;;5.20;99.90;;;;;;4145081;28;20034;-76
2022/12/27 00:16:36;;;;;;;6.20;2.55;;;5.20;99.90;;;;;;4140815;28;20400;-76
2022/12/27 00:18:38;;;;;;;8.43;2.97;;;5.20;99.90;;;;;;4144279;28;20029;-76
2022/12/27 00:20:39;;;;;;;8.38;2.40;;;5.20;99.90;;;;;;4142613;28;20042;-76
2022/12/27 00:22:39;;;;;;;5.13;2.10;;;5.20;99.90;;;;;;4143831;28;20388;-75
2022/12/27 00:24:40;;;;;;;7.13;2.47;;;5.20;99.90;;;;;;4143728;28;20030;-77
2022/12/27 00:26:41;;;;;;;8.23;2.50;;;5.20;99.90;;;;;;4139789;28;20041;-76
2022/12/27 00:28:41;;;;;;;8.82;2.25;;;5.30;99.90;;;;;;4142922;28;20092;-75
2022/12/27 00:30:42;;;;;;;6.68;2.08;;;5.30;99.90;;;;;;4142338;28;20375;-75
2022/12/27 00:32:43;;;;;;;7.53;2.22;;;5.30;99.90;;;;;;4146636;28;20121;-76
2022/12/27 00:34:43;;;;;;;6.70;1.90;;;5.30;99.90;;;;;;4147410;28;20038;-76
2022/12/27 00:36:44;;;;;;;7.57;2.72;;;5.20;99.90;;;;;;4146893;28;20045;-75
2022/12/27 00:38:45;;;;;;;16.92;2.88;;;5.30;99.90;;;;;;4147825;28;24916;-76
2022/12/27 00:40:46;;;;;;;8.43;2.50;;;5.30;99.90;;;;;;4144514;28;20099;-76
2022/12/27 00:42:47;;;;;;;9.05;2.65;;;5.20;99.90;;;;;;4147633;28;20030;-76
2022/12/27 00:44:47;;;;;;;8.77;2.67;;;5.30;99.90;;;;;;4148749;28;20100;-75
2022/12/27 00:46:48;;;;;;;8.93;2.60;;;5.20;99.90;;;;;;4146703;28;20025;-76
2022/12/27 00:48:49;;;;;;;7.10;2.38;;;5.20;99.90;;;;;;4146878;28;20045;-75
2022/12/27 00:50:49;;;;;;;6.53;2.10;;;5.20;99.90;;;;;;4141013;28;20026;-75
2022/12/27 00:52:50;;;;;;;6.75;2.17;;;5.30;99.90;;;;;;4137237;28;20632;-76
2022/12/27 00:54:50;;;;;;;5.50;2.50;;;5.30;99.90;;;;;;4151664;28;20032;-76
2022/12/27 00:56:51;;;;;;;7.95;2.47;;;5.20;99.90;;;;;;4142697;28;20374;-76
2022/12/27 00:58:53;;;;;;;5.80;2.15;;;5.20;99.90;;;;;;4139677;28;20052;-76
2022/12/27 01:00:54;;;;;;;7.03;2.38;;;5.30;99.90;;;;;;4145257;28;20041;-76
2022/12/27 01:02:54;;;;;;;7.88;2.40;;;5.30;99.90;;;;;;4145698;28;20473;-76
2022/12/27 01:04:56;;;;;;;10.07;2.75;;;5.30;99.90;;;;;;4148694;28;20469;-73
2022/12/27 01:06:56;;;;;;;6.72;2.15;;;5.20;99.90;;;;;;4144299;28;20050;-75
2022/12/27 01:08:58;;;;;;;10.43;3.05;;;5.20;99.90;;;;;;4151212;28;20041;-75
2022/12/27 01:10:59;;;;;;;13.00;3.03;;;5.20;99.90;;;;;;4145291;28;20034;-76
2022/12/27 01:13:01;;;;;;;12.18;2.58;;;5.20;99.90;;;;;;4144964;28;20064;-76
2022/12/27 01:15:04;;;;;;;7.82;2.20;;;5.20;99.90;;;;;;4148713;28;20108;-76
2022/12/27 01:17:05;;;;;;;;;;;5.20;99.90;;;;;;4147671;28;20046;-76
2022/12/27 01:19:05;;;;;;;7.65;2.10;;;5.20;99.90;;;;;;4146675;28;20288;-76
2022/12/27 01:21:07;;;;;;;4.97;2.20;;;5.20;99.90;;;;;;4148481;28;20118;-76
2022/12/27 01:23:08;;;;;;;9.60;2.60;;;5.20;99.90;;;;;;4144773;28;20088;-76
2022/12/27 01:25:08;;;;;;;14.43;2.60;;;5.20;99.90;;;;;;4153202;28;20030;-76
2022/12/27 01:27:09;;;;;;;9.00;2.63;;;5.20;99.90;;;;;;4141093;28;20034;-76
2022/12/27 01:29:11;;;;;;;13.60;3.25;;;5.20;99.90;;;;;;4146843;28;20052;-76
2022/12/27 01:31:23;;;;;;;7.72;2.20;;;5.20;99.90;;;;;;4139906;28;20157;-76
2022/12/27 01:33:24;;;;;;;19.73;2.92;;;5.20;99.90;;;;;;4145680;28;20034;-76
2022/12/27 01:35:24;;;;;;;8.90;2.40;;;5.20;99.90;;;;;;4145618;28;20128;-76
2022/12/27 01:37:27;;;;;;;7.97;2.22;;;5.20;99.90;;;;;;4146584;28;20132;-76
2022/12/27 01:39:28;;;;;;;9.27;2.22;;;5.10;99.90;;;;;;4140333;28;20100;-76
2022/12/27 01:43:51;;;;;;;4.70;2.25;;;5.20;99.90;;;;;;4135798;28;20044;-76
2022/12/27 01:45:52;;;;;;;10.50;2.70;;;5.20;99.90;;;;;;4145274;28;20038;-76
2022/12/27 01:48:02;;;;;;;7.95;2.10;;;5.20;99.90;;;;;;4146357;28;20038;-76
2022/12/27 01:50:19;;;;;;;8.68;2.08;;;5.20;99.90;;;;;;4141884;28;20030;-76
2022/12/27 01:52:21;;;;;;;9.38;2.25;;;5.20;99.90;;;;;;4142499;28;20417;-76
2022/12/27 01:54:22;;;;;;;16.75;2.70;;;5.20;99.90;;;;;;4143663;28;20461;-76
2022/12/27 01:56:28;;;;;;;9.43;2.55;;;5.20;99.90;;;;;;4143078;28;20033;-76
2022/12/27 01:58:42;;;;;;;6.32;2.35;;;5.20;99.90;;;;;;4138819;28;20515;-76
2022/12/27 02:00:46;;;;;;;7.15;2.30;;;5.20;99.90;;;;;;4142776;28;20605;-76
2022/12/27 02:02:48;;;;;;;6.35;2.20;;;5.30;99.90;;;;;;4132979;28;20054;-76
2022/12/27 02:04:49;;;;;;;11.80;2.58;;;5.20;99.90;;;;;;4134462;28;20030;-76
2022/12/27 02:06:50;;;;;;;13.93;3.00;;;5.20;99.90;;;;;;4141070;28;20362;-75
2022/12/27 02:09:25;;;;;;;7.60;2.27;;;5.20;99.90;;;;;;4144949;28;20037;-76
2022/12/27 02:13:49;;;;;;;6.38;2.10;;;5.20;99.90;;;;;;4144342;28;20058;-76
2022/12/27 02:15:50;;;;;;;6.05;2.28;;;5.20;99.90;;;;;;4127956;28;20097;-76
2022/12/27 02:17:50;;;;;;;7.63;2.00;;;5.20;99.90;;;;;;4131455;28;20450;-76
2022/12/27 02:20:02;;;;;;;5.70;2.30;;;5.20;99.90;;;;;;4140788;28;20030;-76
2022/12/27 02:22:23;;;;;;;6.00;2.20;;;5.20;99.90;;;;;;4135323;28;20421;-76
2022/12/27 02:24:43;;;;;;;5.68;2.13;;;5.20;99.90;;;;;;4131280;28;20129;-76
2022/12/27 02:27:03;;;;;;;8.75;2.00;;;5.20;99.90;;;;;;4142023;28;20496;-76
2022/12/27 02:29:32;;;;;;;6.38;2.38;;;5.20;99.90;;;;;;4133699;28;20037;-76
2022/12/27 02:31:55;;;;;;;9.75;2.70;;;5.20;99.90;;;;;;4140503;28;20094;-76
2022/12/27 02:33:58;;;;;;;8.48;2.83;;;5.20;99.90;;;;;;4134940;28;20440;-72
2022/12/27 02:36:04;;;;;;;9.23;2.40;;;5.10;99.90;;;;;;4144727;28;20042;-77
2022/12/27 02:38:14;;;;;;;8.32;2.33;;;5.20;99.90;;;;;;4143448;28;20034;-76
2022/12/27 02:55:20;;;;;;;7.88;2.28;;;5.20;99.90;;;;;;4142226;28;20026;-76
2022/12/27 02:57:30;;;;;;;7.90;2.13;;;5.20;99.90;;;;;;4142333;28;20084;-76
2022/12/27 03:05:26;;;;;;;7.28;2.00;;;5.20;99.90;;;;;;4139124;28;20049;-76
2022/12/27 03:07:33;;;;;;;8.32;2.25;;;5.20;99.90;;;;;;4146784;28;20022;-69
2022/12/27 03:17:24;;;;;;;6.65;2.30;;;5.10;99.90;;;;;;4134632;28;20038;-75
2022/12/27 03:26:38;;;;;;;8.05;2.22;;;5.20;99.90;;;;;;4138636;28;20038;-76
2022/12/27 03:33:29;;;;;;;9.35;2.13;;;5.20;99.90;;;;;;4134936;28;20038;-75
2022/12/27 03:35:30;;;;;;;;;;;5.20;99.90;;;;;;4143604;28;20034;-74
2022/12/27 03:40:22;;;;;;;10.18;2.60;;;5.20;99.90;;;;;;4141812;28;20034;-75
2022/12/27 03:44:44;;;;;;;5.95;1.90;;;5.20;99.90;;;;;;4135322;28;20490;-76
2022/12/27 03:46:45;;;;;;;7.20;2.38;;;5.20;99.90;;;;;;4141989;28;20124;-76
2022/12/27 03:49:13;;;;;;;11.02;2.78;;;5.20;99.90;;;;;;4144473;28;20029;-75
2022/12/27 03:51:15;;;;;;;9.38;2.55;;;5.20;99.90;;;;;;4137072;28;20426;-75
2022/12/27 03:53:29;;;;;;;7.22;2.13;;;5.20;99.90;;;;;;4143601;28;20406;-75
2022/12/27 03:55:30;;;;;;;8.48;1.98;;;5.20;99.90;;;;;;4142544;28;20109;-75
2022/12/27 03:57:30;;;;;;;5.57;2.00;;;5.20;99.90;;;;;;4139678;28;20030;-75
2022/12/27 03:59:31;;;;;;;8.80;2.08;;;5.20;99.90;;;;;;4143990;28;20104;-75
2022/12/27 04:01:32;;;;;;;6.38;2.17;;;5.30;99.90;;;;;;4145025;28;20034;-76
2022/12/27 04:03:32;;;;;;;7.90;2.35;;;5.30;99.90;;;;;;4141078;28;20037;-75
2022/12/27 04:05:33;;;;;;;8.43;1.90;;;5.20;99.90;;;;;;4147300;28;20046;-75
2022/12/27 04:07:34;;;;;;;8.68;2.15;;;5.30;99.90;;;;;;4146038;28;20037;-75
2022/12/27 04:35:07;;;;;;;5.70;1.50;;;5.30;99.90;;;;;;4135627;28;20437;-75
2022/12/27 04:37:10;;;;;;;6.63;2.10;;;5.30;99.90;;;;;;4143942;28;20072;-75
2022/12/27 04:39:11;;;;;;;4.00;1.38;;;5.40;99.90;;;;;;4140979;28;20103;-75
2022/12/27 04:55:14;;;;;;;5.90;1.88;;;5.40;99.90;;;;;;4141953;28;20045;-75
2022/12/27 04:57:14;;;;;;;8.48;2.00;;;5.40;99.90;;;;;;4142908;28;20071;-75
2022/12/27 05:03:54;;;;;;;8.73;1.80;;;5.50;99.90;;;;;;4142170;28;20072;-75
2022/12/27 05:05:55;;;;;;;10.40;2.63;;;5.50;99.90;;;;;;4144686;28;20049;-75
2022/12/27 05:14:55;;;;;;;7.53;2.15;;;5.50;99.90;;;;;;4146754;28;20061;-75
2022/12/27 05:16:55;;;;;;;7.80;1.80;;;5.40;99.90;;;;;;4141389;28;20034;-75
2022/12/27 05:18:56;;;;;;;6.55;2.33;;;5.50;99.90;;;;;;4145823;28;20101;-75
2022/12/27 05:21:04;;;;;;;6.57;1.80;;;5.40;99.90;;;;;;4144659;28;20080;-75
2022/12/27 05:25:37;;;;;;;6.20;2.33;;;5.40;99.90;;;;;;4144576;28;20373;-75
2022/12/27 05:27:37;;;;;;;5.47;1.85;;;5.40;99.90;;;;;;4143483;28;20022;-76
2022/12/27 05:29:38;;;;;;;8.65;2.33;;;5.40;99.90;;;;;;4146195;28;20045;-75
2022/12/27 05:31:39;;;;;;;7.72;2.60;;;5.40;99.90;;;;;;4144320;28;20088;-75
2022/12/27 05:33:39;;;;;;;7.50;2.33;;;5.40;99.90;;;;;;4147814;28;20030;-75
2022/12/27 05:35:40;;;;;;;10.43;2.45;;;5.40;99.90;;;;;;4144711;28;20165;-75
2022/12/27 05:37:41;;;;;;;7.15;2.13;;;5.40;99.90;;;;;;4141847;28;20065;-75
2022/12/27 05:39:41;;;;;;;6.03;2.00;;;5.40;99.90;;;;;;4144240;28;20030;-75
2022/12/27 05:41:42;;;;;;;7.85;2.10;;;5.40;99.90;;;;;;4144091;28;20026;-75
2022/12/27 05:43:42;;;;;;;8.20;2.38;;;5.40;99.90;;;;;;4145461;28;20119;-75
2022/12/27 05:45:43;;;;;;;10.98;2.65;;;5.40;99.90;;;;;;4147341;28;20512;-75
2022/12/27 05:47:44;;;;;;;9.63;2.97;;;5.40;99.90;;;;;;4146231;28;20108;-75
2022/12/27 05:49:45;;;;;;;11.95;2.85;;;5.40;99.90;;;;;;4144763;28;20026;-75
2022/12/27 05:51:45;;;;;;;10.35;2.17;;;5.40;99.90;;;;;;4150745;28;20120;-75
2022/12/27 05:53:46;;;;;;;8.00;2.20;;;5.40;99.90;;;;;;4174422;28;20484;-75
2022/12/27 05:55:57;;;;;;;5.60;2.00;;;5.40;99.90;;;;;;4146298;28;20038;-75
2022/12/27 05:57:57;;;;;;;6.22;2.25;;;5.40;99.90;;;;;;4145467;28;20049;-75
2022/12/27 05:59:59;;;;;;;5.72;2.08;;;5.30;99.90;;;;;;4146258;28;20507;-75
2022/12/27 06:02:00;;;;;;;4.55;1.70;;;5.30;99.90;;;;;;4142026;28;20033;-73
2022/12/27 06:04:00;;;;;;;10.65;2.60;;;5.30;99.90;;;;;;4145232;28;20500;-74
2022/12/27 06:06:03;;;;;;;6.47;2.05;;;5.30;99.90;;;;;;4146170;28;20026;-75
2022/12/27 06:08:03;;;;;;;8.00;2.00;;;5.30;99.90;;;;;;4145341;28;20046;-75
2022/12/27 06:10:06;;;;;;;6.50;2.20;;;5.30;99.90;;;;;;4148025;28;20547;-74
2022/12/27 06:12:06;;;;;;;;;;;5.40;99.90;;;;;;4141663;28;20385;-75
2022/12/27 06:14:07;;;;;;;7.90;2.22;;;5.40;99.90;;;;;;4143961;28;19953;-75
2022/12/27 06:16:10;;;;;;;5.70;1.85;;;5.30;99.90;;;;;;4140759;28;20065;-75
2022/12/27 06:18:10;;;;;;;;;;;5.40;99.90;;;;;;4146713;28;20392;-75
2022/12/27 06:20:11;;;;;;;6.90;2.00;;;5.40;99.90;;;;;;4144497;28;19914;-75
2022/12/27 06:22:11;;;;;;;9.90;2.22;;;5.30;99.90;;;;;;4142566;28;20536;-75
2022/12/27 06:24:12;;;;;;;5.25;2.08;;;5.30;99.90;;;;;;4147786;28;20099;-75
2022/12/27 06:26:19;;;;;;;8.43;2.13;;;5.30;99.90;;;;;;4143887;28;20030;-75
2022/12/27 06:28:19;;;;;;;5.40;2.00;;;5.30;99.90;;;;;;4143414;28;20078;-75
2022/12/27 06:30:20;;;;;;;7.18;2.28;;;5.30;99.90;;;;;;4138080;28;20046;-75
2022/12/27 06:32:20;;;;;;;5.60;2.10;;;5.30;99.90;;;;;;4143252;28;20037;-75
2022/12/27 06:34:21;;;;;;;9.57;2.33;;;5.30;99.90;;;;;;4145282;28;20037;-76
2022/12/27 06:36:26;;;;;;;11.45;2.58;;;5.30;99.90;;;;;;4142107;28;20049;-76
2022/12/27 06:38:26;;;;;;;7.72;2.63;;;5.30;99.90;;;;;;4146886;28;20044;-76
2022/12/27 06:40:27;;;;;;;5.60;2.47;;;5.30;99.90;;;;;;4142536;28;20026;-75
2022/12/27 06:42:29;;;;;;;8.38;2.63;;;5.20;99.90;;;;;;4143089;28;20042;-75
2022/12/27 06:44:30;;;;;;;8.15;2.22;;;5.20;99.90;;;;;;4148540;28;20034;-75
2022/12/27 06:46:30;;;;;;;6.55;2.03;;;5.20;99.90;;;;;;4143494;28;20374;-72
2022/12/27 06:48:31;;;;;;;5.65;1.90;;;5.20;99.90;;;;;;4144492;28;20392;-74
2022/12/27 06:50:32;;;;;;;6.95;2.08;;;5.20;99.90;;;;;;4143031;28;20030;-75
2022/12/27 06:52:32;;;;;;;7.68;2.22;;;5.20;99.90;;;;;;4146042;28;20063;-74
2022/12/27 06:54:33;;;;;;;7.90;2.30;;;5.20;99.90;;;;;;4147171;28;20396;-75
2022/12/27 06:56:33;;;;;;;8.73;2.20;;;5.20;99.90;;;;;;4142547;28;20491;-75
2022/12/27 06:58:34;;;;;;;7.75;2.28;;;5.20;99.90;;;;;;4145945;28;20107;-76
2022/12/27 07:00:35;;;;;;;7.45;2.45;;;5.20;99.90;;;;;;4140002;28;20025;-75
2022/12/27 07:02:37;;;;;;;8.65;2.70;;;5.10;99.90;;;;;;4140651;28;20542;-74
2022/12/27 07:04:37;;;;;;;9.63;2.35;;;5.20;99.90;;;;;;4143893;28;20037;-76
2022/12/27 07:06:38;;;;;;;5.20;2.15;;;5.20;99.90;;;;;;4142046;28;20041;-74
2022/12/27 07:08:39;;;;;;;6.53;1.85;;;5.20;99.90;;;;;;4144098;28;20514;-77
2022/12/27 07:10:39;;;;;;;7.35;2.60;;;5.30;99.90;;;;;;4143669;28;20121;-75
2022/12/27 07:12:40;;;;;;;6.60;2.25;;;5.20;99.90;;;;;;4143559;28;20132;-77
2022/12/27 07:14:40;;;;;;;8.40;2.08;;;5.20;99.90;;;;;;4143020;28;20092;-77
2022/12/27 07:16:41;;;;;;;7.20;2.15;;;5.20;99.90;;;;;;4140654;28;20040;-77
2022/12/27 07:18:42;;;;;;;10.15;2.17;;;5.20;99.90;;;;;;4139952;28;20113;-77
2022/12/27 07:20:43;;;;;;;9.60;2.03;;;5.10;99.90;;;;;;4134768;28;20390;-77
2022/12/27 07:22:43;;;;;;;9.90;2.25;;;5.10;99.90;;;;;;4137475;28;20044;-77
2022/12/27 07:24:44;;;;;;;5.28;2.10;;;5.10;99.90;;;;;;4142924;28;20148;-77
2022/12/27 07:26:44;;;;;;;9.20;2.55;;;5.20;99.90;;;;;;4142076;28;20026;-77
2022/12/27 07:28:45;;;;;;;7.03;2.40;;;5.10;99.90;;;;;;4144613;28;20036;-77
2022/12/27 07:30:45;;;;;;;9.48;2.45;;;5.20;99.90;;;;;;4141623;28;20081;-77
2022/12/27 07:32:46;;;;;;;8.35;2.10;;;5.20;99.90;;;;;;4143082;28;20025;-77
2022/12/27 07:34:47;;;;;;;6.65;2.15;;;5.20;99.90;;;;;;4145229;28;20047;-77
2022/12/27 07:36:47;;;;;;;11.57;2.95;;;5.20;99.90;;;;;;4144149;28;20033;-77
2022/12/27 07:38:48;;;;;;;7.35;2.53;;;5.20;99.90;;;;;;4143917;28;20042;-77
2022/12/27 07:40:48;;;;;;;10.70;2.50;;;5.20;99.90;;;;;;4142875;28;20033;-76
2022/12/27 07:42:49;;;;;;;7.72;2.25;;;5.20;99.90;;;;;;4139170;28;20409;-77
2022/12/27 07:44:49;;;;;;;9.63;2.70;;;5.20;99.90;;;;;;4137840;28;20081;-78
2022/12/27 07:46:51;;;;;;;7.65;2.58;;;5.30;99.90;;;;;;4137656;28;20034;-78
2022/12/27 07:48:56;;;;;;;6.28;2.33;;;5.30;99.90;;;;;;4138556;28;20049;-78
2022/12/27 07:50:57;;;;;;;4.63;2.03;;;5.20;99.90;;;;;;4136849;28;20022;-77
2022/12/27 07:52:57;;;;;;;5.22;1.83;;;5.20;99.90;;;;;;4139497;28;20505;-77
2022/12/27 07:54:58;;;;;;;10.55;2.17;;;5.20;99.90;;;;;;4140106;28;20044;-77
2022/12/27 07:56:58;;;;;;;7.50;2.20;;;5.30;99.90;;;;;;4139919;28;20039;-77
2022/12/27 07:59:00;;;;;;;5.03;2.47;;;5.20;99.90;;;;;;4139995;28;20080;-78
2022/12/27 08:01:02;;;;;;;7.03;2.47;;;5.30;99.90;;;;;;4137488;28;20038;-78
2022/12/27 08:03:03;;;;;;;5.05;1.88;;;5.20;99.90;;;;;;4128381;28;20037;-77
2022/12/27 08:05:05;;;;;;;7.25;2.38;;;5.20;99.90;;;;;;4134641;28;20037;-75
2022/12/27 08:07:12;;;;;;;8.43;2.20;;;5.20;99.90;;;;;;4129293;28;20030;-73
2022/12/27 08:09:16;;;;;;;6.80;1.95;;;5.20;99.90;;;;;;4139569;28;20356;-78
2022/12/27 08:11:16;;;;;;;6.88;2.42;;;5.20;99.90;;;;;;4138524;28;20406;-78
2022/12/27 08:13:17;;;;;;;7.47;2.65;;;5.20;99.90;;;;;;4138313;28;20057;-78
2022/12/27 08:15:17;;;;;;;5.57;2.35;;;5.20;99.90;;;;;;4136393;28;20037;-78
2022/12/27 08:17:22;;;;;;;8.32;2.42;;;5.20;99.90;;;;;;4141277;28;20042;-79
2022/12/27 08:19:23;;;;;;;5.95;2.20;;;5.30;99.90;;;;;;4138610;28;20034;-79
2022/12/27 08:21:23;;;;;;;6.03;2.38;;;5.30;99.90;;;;;;4141461;28;20033;-79
2022/12/27 08:23:24;;;;;;;7.05;2.42;;;5.30;99.90;;;;;;4140356;28;20027;-79
2022/12/27 08:25:25;;;;;;;6.95;2.35;;;5.40;99.90;;;;;;4142187;28;20041;-79
2022/12/27 08:27:26;;;;;;;13.65;2.25;;;5.40;99.90;;;;;;4147267;28;20018;-78
2022/12/27 08:29:26;;;;;;;7.22;2.47;;;5.40;99.90;;;;;;4142902;28;20041;-78
2022/12/27 08:31:27;;;;;;;6.43;1.77;;;5.40;99.90;;;;;;4144682;28;20037;-79
2022/12/27 08:33:28;;;;;;;10.40;3.30;;;5.50;99.90;;;;;;4143443;28;20111;-78
2022/12/27 08:35:29;;;;;;;10.57;2.30;;;5.50;99.90;;;;;;4137580;28;20389;-78
2022/12/27 08:37:29;;;;;;;8.35;2.20;;;5.50;99.90;;;;;;4140702;28;20398;-78
2022/12/27 08:39:30;;;;;;;4.97;1.83;;;5.50;99.90;;;;;;4143953;28;20128;-78
2022/12/27 08:41:30;;;;;;;4.53;2.15;;;5.50;99.90;;;;;;4142518;28;20034;-77
2022/12/27 08:43:31;;;;;;;6.18;2.33;;;5.50;99.90;;;;;;4142952;28;20033;-78
2022/12/27 08:45:32;;;;;;;8.27;2.20;;;5.50;99.90;;;;;;4140619;28;20088;-74
2022/12/27 08:47:32;;;;;;;9.35;2.38;;;5.60;99.90;;;;;;4143415;28;20046;-76
2022/12/27 08:49:33;;;;;;;6.18;2.05;;;5.60;99.90;;;;;;4135653;28;20058;-76
2022/12/27 08:51:33;;;;;;;4.95;1.75;;;5.60;99.90;;;;;;4136621;28;20041;-76
2022/12/27 08:53:34;;;;;;;7.15;2.53;;;5.60;99.90;;;;;;4137014;28;20060;-77
2022/12/27 08:55:35;;;;;;;9.63;2.88;;;5.60;99.90;;;;;;4143174;28;20096;-77
2022/12/27 08:57:35;;;;;;;5.78;2.33;;;5.60;99.90;;;;;;4142418;28;20037;-77
2022/12/27 08:59:36;;;;;;;6.38;2.50;;;5.60;99.90;;;;;;4141378;28;20037;-77
2022/12/27 09:01:36;;;;;;;6.53;2.15;;;5.60;99.90;;;;;;4147145;28;20056;-77
2022/12/27 09:03:37;;;;;;;8.93;2.47;;;5.70;99.90;;;;;;4145008;28;20080;-72
2022/12/27 09:05:37;;;;;;;9.45;2.72;;;5.60;99.90;;;;;;4140974;28;20041;-76
2022/12/27 09:07:38;;;;;;;5.15;1.85;;;5.70;99.90;;;;;;4146396;28;20046;-77
2022/12/27 09:09:39;;;;;;;8.85;2.95;;;5.70;99.90;;;;;;4145814;28;20484;-76
2022/12/27 09:11:39;;;;;;;8.18;2.30;;;5.80;99.90;;;;;;4144920;28;20045;-76
2022/12/27 09:13:41;;;;;;;7.13;2.25;;;5.80;99.90;;;;;;4146276;28;20046;-77
2022/12/27 09:15:42;;;;;;;7.25;2.60;;;5.80;99.90;;;;;;4144245;28;20041;-78
2022/12/27 09:17:42;;;;;;;7.55;2.28;;;5.80;99.90;;;;;;4146561;28;20080;-77
2022/12/27 09:19:43;;;;;;;10.10;2.70;;;5.80;99.90;;;;;;4146550;28;20535;-77
2022/12/27 09:21:44;;;;;;;5.15;2.08;;;5.90;99.90;;;;;;4145254;28;20058;-77
2022/12/27 09:23:45;;;;;;;12.65;2.63;;;5.90;99.90;;;;;;4145838;28;20400;-78
2022/12/27 09:25:45;;;;;;;12.98;2.50;;;5.90;99.90;;;;;;4144622;28;20061;-78
2022/12/27 09:27:46;;;;;;;7.50;2.50;;;6.00;99.90;;;;;;4146125;28;20385;-78
2022/12/27 09:29:47;;;;;;;9.73;2.63;;;6.00;99.90;;;;;;4142466;28;20968;-78
2022/12/27 09:31:47;;;;;;;6.80;2.20;;;6.00;99.90;;;;;;4143932;28;20049;-78
2022/12/27 09:33:48;;;;;;;8.70;2.60;;;6.00;99.90;;;;;;4145625;28;20037;-79
2022/12/27 09:35:49;;;;;;;5.65;2.00;;;6.10;99.90;;;;;;4174404;28;20044;-78
2022/12/27 09:37:50;;;;;;;9.85;2.55;;;6.00;99.90;;;;;;4146428;28;20112;-79
2022/12/27 09:39:51;;;;;;;6.88;2.00;;;6.10;99.90;;;;;;4148201;28;20510;-79
2022/12/27 09:41:57;;;;;;;12.10;2.83;;;6.10;99.90;;;;;;4144504;28;20034;-78
2022/12/27 09:44:12;;;;;;;11.88;2.70;;;6.20;99.90;;;;;;4144964;28;20037;-79
2022/12/27 09:46:18;;;;;;;6.57;2.72;;;6.20;99.90;;;;;;4141002;28;20042;-77
2022/12/27 09:48:38;;;;;;;5.00;1.95;;;6.30;99.90;;;;;;4143472;28;20076;-78
2022/12/27 09:50:51;;;;;;;9.32;2.50;;;6.30;99.90;;;;;;4140283;28;20049;-77
2022/12/27 09:53:05;;;;;;;9.80;2.28;;;6.30;99.90;;;;;;4143170;28;20034;-78
2022/12/27 09:55:28;;;;;;;13.90;3.20;;;6.40;99.90;;;;;;4141314;28;20049;-78
2022/12/27 09:57:40;;;;;;;10.35;2.55;;;6.50;99.90;;;;;;4140431;28;20117;-78
2022/12/27 09:59:45;;;;;;;6.50;2.20;;;6.50;99.90;;;;;;4140602;28;20435;-77
2022/12/27 10:01:47;;;;;;;8.38;3.00;;;6.60;99.90;;;;;;4143960;28;20026;-78
2022/12/27 10:03:49;;;;;;;6.78;2.50;;;6.70;99.90;;;;;;4144732;28;20053;-78
2022/12/27 10:05:58;;;;;;;8.10;2.20;;;6.80;99.90;;;;;;4141717;28;20038;-78
2022/12/27 10:08:53;;;;;;;6.07;2.40;;;6.70;99.90;;;;;;4142062;28;20046;-78
2022/12/27 10:11:08;;;;;;;11.52;2.78;;;6.80;99.90;;;;;;4123016;28;20050;-78
2022/12/27 10:13:22;;;;;;;6.80;2.65;;;6.80;99.90;;;;;;4144780;28;20073;-77
2022/12/27 10:15:38;;;;;;;5.05;2.00;;;6.80;99.90;;;;;;4142674;28;20156;-78
2022/12/27 10:18:15;;;;;;;8.07;2.22;;;6.90;99.90;;;;;;4142356;28;20038;-77
2022/12/27 10:20:40;;;;;;;6.28;2.03;;;6.90;99.90;;;;;;4146349;28;20041;-78
2022/12/27 10:22:53;;;;;;;8.15;2.30;;;7.00;99.90;;;;;;4142725;28;20437;-77
2022/12/27 10:24:55;;;;;;;;;;;7.00;99.90;;;;;;4145676;28;20496;-78
2022/12/27 10:26:56;;;;;;;4.60;2.08;;;7.00;99.90;;;;;;4145283;28;19910;-78
2022/12/27 10:29:09;;;;;;;10.38;2.80;;;7.10;99.90;;;;;;4146174;28;20116;-79
2022/12/27 10:31:17;;;;;;;9.30;2.63;;;7.10;99.90;;;;;;4131387;28;20034;-78
2022/12/27 10:33:27;;;;;;;7.13;1.73;;;7.20;99.90;;;;;;4142472;28;20081;-78
2022/12/27 10:35:27;;;;;;;11.45;2.60;;;7.10;99.90;;;;;;4138400;28;20030;-78
2022/12/27 10:37:28;;;;;;;9.93;2.60;;;7.20;99.90;;;;;;4142031;28;20848;-78
2022/12/27 10:39:33;;;;;;;4.70;1.92;;;7.20;99.90;;;;;;4143067;28;20030;-79
2022/12/27 10:41:49;;;;;;;9.18;2.58;;;7.30;99.90;;;;;;4140622;28;20029;-74
2022/12/27 10:43:52;;;;;;;9.55;2.65;;;7.30;99.90;;;;;;4131191;28;20137;-79
2022/12/27 10:45:52;;;;;;;;;;;7.30;99.90;;;;;;4136009;28;20030;-79
2022/12/27 10:47:55;;;;;;;7.72;2.28;;;7.30;99.90;;;;;;4140557;28;19987;-78
2022/12/27 10:50:05;;;;;;;4.75;2.13;;;7.40;99.90;;;;;;4142178;28;20034;-78
2022/12/27 10:52:18;;;;;;;4.70;2.10;;;7.40;99.90;;;;;;4140221;28;20092;-78
2022/12/27 10:54:23;;;;;;;;;;;7.50;99.90;;;;;;4139097;28;20371;-79
2022/12/27 10:56:30;;;;;;;7.05;1.95;;;7.50;99.90;;;;;;4135351;28;20013;-79
2022/12/27 10:58:33;;;;;;;7.95;2.38;;;7.50;99.90;;;;;;4140881;28;20033;-78
2022/12/27 11:00:35;;;;;;;8.80;2.70;;;7.50;99.90;;;;;;4141191;28;20023;-75
2022/12/27 11:02:51;;;;;;;9.25;2.30;;;7.50;99.90;;;;;;4140000;28;20033;-77
2022/12/27 11:04:58;;;;;;;12.02;2.92;;;7.60;99.90;;;;;;4141670;28;20042;-79
2022/12/27 11:07:01;;;;;;;6.28;1.92;;;7.60;99.90;;;;;;4142334;28;20087;-80
2022/12/27 11:09:26;;;;;;;5.47;1.92;;;7.60;99.90;;;;;;4143383;28;20057;-81
2022/12/27 11:11:26;;;;;;;6.57;1.70;;;7.70;99.90;;;;;;4141769;28;20034;-81
2022/12/27 11:13:27;;;;;;;6.70;2.38;;;7.70;99.90;;;;;;4140168;28;20042;-82
2022/12/27 11:15:36;;;;;;;5.80;2.30;;;7.70;99.90;;;;;;4154675;28;20481;-80
2022/12/27 11:17:59;;;;;;;6.30;2.20;;;7.70;99.90;;;;;;4140031;28;20101;-79
2022/12/27 11:20:04;;;;;;;6.70;2.00;;;7.70;99.90;;;;;;4142540;28;20064;-81
2022/12/27 11:22:07;;;;;;;6.72;2.50;;;7.70;99.90;;;;;;4140808;28;20041;-77
2022/12/27 11:24:15;;;;;;;8.18;2.20;;;7.70;99.90;;;;;;4142169;28;20406;-79
2022/12/27 11:26:22;;;;;;;8.88;2.33;;;7.80;99.90;;;;;;4139787;28;20108;-80
2022/12/27 11:28:44;;;;;;;10.18;2.53;;;7.90;99.90;;;;;;4141649;28;20022;-80
2022/12/27 11:30:56;;;;;;;6.57;2.33;;;7.90;99.90;;;;;;4139829;28;20052;-80
2022/12/27 11:33:25;;;;;;;10.23;2.45;;;7.90;99.90;;;;;;4139136;28;20038;-80
2022/12/27 11:35:26;;;;;;;3.65;1.83;;;8.00;99.90;;;;;;4128575;28;20030;-80
2022/12/27 11:37:27;;;;;;;7.72;2.38;;;8.00;99.90;;;;;;4140770;28;20117;-80
2022/12/27 11:39:40;;;;;;;6.43;2.38;;;8.00;99.90;;;;;;4141856;28;20092;-81
2022/12/27 11:41:53;;;;;;;6.07;2.38;;;8.10;99.90;;;;;;4135535;28;20030;-80
2022/12/27 11:43:57;;;;;;;;;;;8.10;99.90;;;;;;4141903;28;20125;-80
2022/12/27 11:46:02;;;;;;;5.32;2.25;;;8.10;99.90;;;;;;4141795;28;19935;-82
2022/12/27 11:48:32;;;;;;;9.23;2.65;;;8.10;99.90;;;;;;4139448;28;20049;-82
2022/12/27 11:50:45;;;;;;;4.65;2.08;;;8.20;99.90;;;;;;4140616;28;20040;-81
2022/12/27 11:53:13;;;;;;;8.07;2.50;;;8.20;99.90;;;;;;4134546;28;20460;-80
2022/12/27 11:55:22;;;;;;;7.60;2.63;;;8.30;99.90;;;;;;4134784;28;20037;-81
2022/12/27 11:57:53;;;;;;;8.93;2.05;;;8.30;99.90;;;;;;4140754;28;20021;-84
2022/12/27 12:00:18;;;;;;;9.07;2.53;;;8.30;99.90;;;;;;4147127;28;20033;-82
2022/12/27 12:02:28;;;;;;;7.90;2.55;;;8.20;99.90;;;;;;4132483;28;20034;-80
2022/12/27 12:04:51;;;;;;;6.95;2.00;;;8.30;99.90;;;;;;4135331;28;20068;-81
2022/12/27 12:07:00;;;;;;;5.80;1.88;;;8.20;99.90;;;;;;4150129;28;20534;-81
2022/12/27 12:09:16;;;;;;;9.05;2.20;;;8.20;99.90;;;;;;4137229;28;20065;-81
2022/12/27 12:11:45;;;;;;;7.00;2.33;;;8.10;99.90;;;;;;4139872;28;20508;-81
2022/12/27 12:14:06;;;;;;;6.88;2.42;;;8.10;99.90;;;;;;4141300;28;20129;-81
2022/12/27 12:16:34;;;;;;;4.05;1.88;;;8.10;99.90;;;;;;4132139;28;20405;-82
2022/12/27 12:18:37;;;;;;;6.07;2.00;;;8.10;99.90;;;;;;4131274;28;20106;-81
2022/12/27 12:20:42;;;;;;;8.48;2.10;;;8.00;99.90;;;;;;4131176;28;20030;-80
2022/12/27 12:23:00;;;;;;;4.40;2.05;;;8.00;99.90;;;;;;4154966;28;20596;-80
2022/12/27 12:25:22;;;;;;;5.25;1.90;;;8.00;99.90;;;;;;4139882;28;24395;-80
2022/12/27 12:27:28;;;;;;;9.10;2.40;;;8.00;99.90;;;;;;4145709;28;20033;-82
2022/12/27 12:30:10;;;;;;;7.57;2.55;;;8.00;99.90;;;;;;4146790;28;20151;-81
2022/12/27 12:32:33;;;;;;;5.80;1.83;;;8.00;99.90;;;;;;4144760;28;20037;-76
2022/12/27 12:35:04;;;;;;;5.40;2.17;;;8.00;99.90;;;;;;4144484;28;20087;-84
2022/12/27 12:37:18;;;;;;;7.55;2.17;;;8.00;99.90;;;;;;4132144;28;20044;-84
2022/12/27 12:39:43;;;;;;;7.18;1.92;;;8.00;99.90;;;;;;4147765;28;20046;-83
2022/12/27 12:41:51;;;;;;;3.10;1.38;;;8.00;99.90;;;;;;4140274;28;20041;-83
2022/12/27 12:44:15;;;;;;;5.50;2.03;;;8.00;99.90;;;;;;4143276;28;20044;-86